Aviation Digital Data Service (ADDS)

Output produced by METARs form (1541 UTC 06 July 2015)
found at http://aviationweather.gov/adds/metars/
 
KDAG 061450Z AUTO 27007KT 10SM CLR 28/04 A3001 RMK AO2 SLP130 T02780044
KDAG 061120Z 0612/0712 24013KT P6SM SKC 
     FM061600 32008KT P6SM SKC 
     FM062000 02008KT P6SM SCT120 
     FM070200 25014KT P6SM FEW120
       
KEDW 061458Z 29002KT 80SM CLR 24/09 A3001 RMK AO2A SLP138 FU DSNT SE-SW T02360089 51008
TAF AMD KEDW 0615/0716 24009KT 9999 FEW100 QNH2998INS 
     BECMG 0619/0620 24012G18KT 9999 SCT100 QNH2991INS 
     TEMPO 0623/0702 24025G35KT 520009 
     BECMG 0702/0703 22009KT 9999 SKC QNH2992INS TX35/0621Z TN20/0712Z AMD 061502
       
KVCV 061515Z AUTO 00000KT 10SM CLR 26/06 A3007 RMK AO2
KONT 061453Z 18003KT 5SM HZ OVC015 19/14 A3004 RMK AO2 SLP163 T01890144 51010 $
KONT 061120Z 0612/0718 VRB05KT P6SM OVC015 
     TEMPO 0613/0617 5SM HZ 
     FM061800 VRB06KT 6SM HZ SCT018 
     FM062000 26013KT P6SM SKC 
     FM070400 26005KT P6SM SCT015 
     FM070700 VRB05KT P6SM OVC015
       
KSNA 061453Z 21004KT 10SM OVC016 19/16 A3004 RMK AO2 SLP172 T01890156 51011
KSNA 061120Z 0612/0712 28006KT P6SM OVC012 
     FM062100 22010KT P6SM SCT020 
     FM070200 VRB05KT P6SM OVC015
       
KSAN 061451Z 30003KT 10SM OVC018 19/15 A3006 RMK AO2 SLP180 T01940150 53013
KSAN 061422Z 0614/0718 VRB05KT P6SM OVC017 
     FM061900 29010KT P6SM BKN021 
     FM070200 VRB05KT P6SM OVC018
       
KNID 061456Z 13004KT 10SM CLR 29/09 A3001 RMK AO2 SLP135 T02890094 51013
TAF KNID 0615/0715 VRB06KT 9999 SKC QNH2998INS 
     TEMPO 0615/0621 20010KT 
     BECMG 0621/0623 24010G22KT 9999 SCT100 QNH2987INS 
     BECMG 0702/0704 VRB06KT 9999 SKC QNH2988INS T39/0622Z T21/0712Z
       
KNXP 061456Z AUTO 14004KT 10SM CLR 29/08 A3007 RMK AO2 SLP141 T02940078 51012
TAF KNXP 0615/0715 VRB05KT 9999 FEW200 QNH3004INS 
     FM061900 11009KT 9999 FEW200 QNH2994INS 
     TEMPO 0619/0701 21010G17KT 
     BECMG 0701/0702 23011KT 9999 FEW200 QNH2991INS AUTOMATED SENSOR METWATCH 0615 TIL 0714 T37/0622Z T25/0713Z
       
KPSP 061453Z 32006KT 10SM CLR 28/14 A2995 RMK AO2 SLP137 T02830144 51014
KPSP 061120Z 0612/0712 VRB05KT P6SM SKC 
     FM062300 33012G22KT P6SM SKC 
     FM070700 33008KT P6SM SKC
       
KLAX 061453Z 00000KT 10SM OVC012 18/16 A3005 RMK AO2 SLP173 T01780156 51009
KLAX 061432Z 0615/0718 31005KT P6SM OVC012 
     FM061600 27007KT P6SM OVC015 
     FM062200 26012KT P6SM BKN020 
     FM070300 26007KT P6SM OVC015 
     FM070900 VRB03KT P6SM OVC015 
     FM071700 25006KT P6SM BKN020
       
KCNO 061453Z 24004KT 5SM HZ OVC016 20/16 A3006 RMK AO2 SLP173 T02000156 51010
KSMO 061451Z 21003KT 9SM OVC010 16/15 A3005 RMK AO2 SLP174 T01610150 51010
KLGB 061453Z 23004KT 10SM OVC016 20/16 A3004 RMK AO2 SLP173 T02000156 51012
KLGB 061123Z 0612/0712 VRB03KT P6SM OVC015 
     FM061500 16006KT P6SM OVC022 
     FM062100 21007KT P6SM SCT025 
     FM070000 29008KT P6SM SKC 
     FM070400 VRB03KT P6SM OVC015
       
KVNY 061451Z 00000KT 8SM OVC013 19/14 A3004 RMK AO2 SLP166 T01890144 51010
KVNY 061123Z 0612/0712 14006KT P6SM OVC010 
     FM061800 14010KT P6SM SKC 
     FM070700 VRB03KT P6SM BKN010
       
KBUR 061453Z 17005KT 6SM HZ OVC013 18/14 A3004 RMK AO2 SLP161 T01830144 51009
KBUR 061123Z 0612/0712 VRB03KT P6SM OVC010 
     FM061900 17010KT P6SM SKC 
     FM070600 VRB03KT P6SM BKN010
       
KBFL 061454Z 32006KT 10SM CLR 25/12 A3001 RMK AO2 SLP154 T02500122 51009
KBFL 061129Z 0612/0712 33005KT P6SM SKC 
     FM062000 31012G18KT P6SM SKC 
     FM070300 33007KT P6SM SKC
       
KPMD 061453Z AUTO 20005KT 10SM CLR 26/08 A3004 RMK AO2 SLP141 T02560078 52005
KPMD 061123Z 0612/0712 21007KT P6SM SKC 
     FM061900 25012G20KT P6SM SKC 
     FM062200 25018G28KT P6SM SKC 
     FM070400 25012KT P6SM SKC
       
KOXR 061451Z 24003KT 5SM BR BKN006 OVC010 17/15 A3005 RMK AO2 SLP173 T01670150 53008
KOXR 061433Z 0615/0712 25004KT 3SM BR OVC007 
     FM061600 28006KT P6SM OVC010 
     FM062000 26012KT P6SM BKN015 
     FM070300 26007KT P6SM OVC009
       
KWJF 061456Z 27003KT 10SM CLR 24/09 A3003 RMK AO2 SLP150 T02440094 51009
KWJF 061123Z 0612/0712 24007KT P6SM SKC 
     FM061800 24012G18KT P6SM SKC 
     FM062200 23020G30KT P6SM SKC 
     FM070400 24015KT P6SM SKC
       
KCMA 061455Z 20005KT 5SM BR OVC009 17/14 A3005 RMK AO2 SLP182 T01720144 53009
KFAT 061453Z 33006KT 10SM CLR 23/13 A3000 RMK AO2 SLP154 MTNS OBSC HZ DSNT N-E-S T02280128 51016
KFAT 061129Z 0612/0712 30009KT P6SM SKC 
     FM070100 31014G21KT P6SM SKC 
     FM070800 31011KT P6SM SKC
       
KEED 061456Z AUTO 08004KT 10SM CLR 32/16 A2996 RMK AO2 SLP108 T03170156 53012
KEED 061120Z 0612/0712 11008KT P6SM SCT100 
     FM061600 17009KT P6SM FEW150 
     FM061800 23010KT P6SM FEW150 
     FM070000 21007KT P6SM VCSH SCT100 BKN150 
     FM070400 22008KT P6SM FEW150
       
KLSV 061458Z AUTO 12007KT 10SM SCT140 30/15 A2998 RMK AO2 SLP126 T02980154 52014 CHINO RWY03R $
TAF AMD KLSV 0612/0715 30009KT 9999 SCT150 BKN210 QNH2990INS 
     BECMG 0616/0617 25012KT 9999 VCTS SCT100CB BKN200 QNH2993INS 
     TEMPO 0620/0704 VRB15G25KT 8000 -TSRA BKN080CB BKN200 
     BECMG 0703/0704 15009KT 9999 NSW FEW120 QNH2984INS TX39/0622Z TN27/0711Z COR 061238
       
KLAS 061456Z 17010KT 10SM FEW100 BKN150 29/13 A2997 RMK AO2 SLP119 VIRGA NE-E ACC NE T02940128 51015
KLAS 061506Z 0615/0712 14007KT P6SM SCT120 BKN150 
     FM061800 17008KT P6SM FEW120 SCT150 
     FM062000 19010KT P6SM VCTS SCT100CB BKN150 BKN200 
     FM070300 21008KT P6SM FEW120 SCT150
       
KHII 061510Z AUTO 15004KT 10SM CLR 30/15 A2996 RMK AO2
KIFP 061535Z AUTO 21005KT 10SM CLR 31/16 A2996 RMK AO2
KIFP 061120Z 0612/0712 21004KT P6SM SKC 
     FM061800 19010G18KT P6SM SCT120 
     FM062300 19012G20KT P6SM VCTS SCT100CB BKN250 
     FM070500 16006KT P6SM FEW100 BKN150